Time;durP1;ratioP1;P1;durP2;ratioP2;P2;SDS_P1;SDS_P2;PMS_P1;PMS_P2;Temp;Humidity;BMP_temperature;BMP_pressure;BME280_temperature;BME280_humidity;BME280_pressure;Samples;Min_cycle;Max_cycle;Signal;HPM_P1;HPM_P2
2023/08/23 00:01:23;;;;;;;5.25;3.33;;;;;;;18.59;79.93;101943.16;5036189;28;20037;-60
2023/08/23 00:03:48;;;;;;;9.10;3.30;;;;;;;18.49;80.02;101943.19;5035940;28;20029;-60
2023/08/23 00:06:13;;;;;;;7.68;3.60;;;;;;;18.42;80.95;101945.91;5035941;28;20384;-60
2023/08/23 00:08:39;;;;;;;7.55;3.42;;;;;;;18.41;80.73;101942.31;5035680;28;20403;-60
2023/08/23 00:11:04;;;;;;;6.47;3.50;;;;;;;18.27;80.80;101938.81;5034612;28;20029;-61
2023/08/23 00:13:29;;;;;;;5.40;3.20;;;;;;;18.27;80.95;101939.72;5035733;28;20034;-59
2023/08/23 00:15:55;;;;;;;8.98;3.35;;;;;;;18.32;80.39;101933.44;5036010;28;20026;-60
2023/08/23 00:18:20;;;;;;;7.20;3.30;;;;;;;18.29;80.40;101937.06;5035470;28;20026;-60
2023/08/23 00:20:46;;;;;;;7.07;3.17;;;;;;;18.35;80.08;101934.34;5035973;28;20411;-59
2023/08/23 00:23:11;;;;;;;11.07;3.10;;;;;;;18.45;79.86;101932.50;5035518;28;20045;-59
2023/08/23 00:25:36;;;;;;;7.40;3.28;;;;;;;18.41;78.96;101928.94;5035708;28;20104;-59
2023/08/23 00:28:02;;;;;;;5.22;3.00;;;;;;;18.43;79.26;101927.16;5035461;28;20312;-60
2023/08/23 00:30:27;;;;;;;5.70;3.10;;;;;;;18.34;79.24;101931.69;5035362;28;20049;-60
2023/08/23 00:32:52;;;;;;;6.95;3.05;;;;;;;18.22;80.29;101925.47;5035436;28;20105;-60
2023/08/23 00:35:18;;;;;;;7.63;2.92;;;;;;;18.11;80.67;101923.72;5035832;28;20422;-60
2023/08/23 00:37:43;;;;;;;6.97;3.20;;;;;;;18.15;80.46;101920.13;5035599;28;20034;-60
2023/08/23 00:40:12;;;;;;;6.07;2.97;;;;;;;18.21;79.94;101918.34;5035144;28;20029;-59
2023/08/23 00:42:37;;;;;;;5.05;2.60;;;;;;;18.29;78.85;101917.44;5035316;28;20025;-60
2023/08/23 00:45:03;;;;;;;9.20;3.28;;;;;;;18.30;79.62;101916.53;5017436;28;20434;-60
2023/08/23 00:47:29;;;;;;;5.50;3.05;;;;;;;18.26;79.44;101905.81;5035040;28;20430;-60
2023/08/23 00:49:57;;;;;;;6.53;3.10;;;;;;;18.34;78.63;101915.63;5035404;28;20029;-60
2023/08/23 00:52:23;;;;;;;6.28;2.75;;;;;;;18.38;78.62;101915.59;5035008;28;20375;-60
2023/08/23 00:54:49;;;;;;;7.32;2.90;;;;;;;18.40;78.24;101905.75;5034099;28;20052;-60
2023/08/23 00:57:15;;;;;;;7.90;2.80;;;;;;;18.41;78.63;101906.66;5033724;28;20076;-60
2023/08/23 00:59:41;;;;;;;7.22;2.58;;;;;;;18.42;79.07;101905.78;5035021;28;20104;-60
2023/08/23 01:02:08;;;;;;;7.90;3.38;;;;;;;18.30;78.67;101904.03;5017041;28;20064;-60
2023/08/23 01:04:34;;;;;;;6.00;2.50;;;;;;;18.21;78.50;101899.63;5034920;28;20030;-60
2023/08/23 01:07:17;;;;;;;8.98;2.58;;;;;;;18.21;78.64;101907.63;5034939;28;20025;-60
2023/08/23 01:10:02;;;;;;;5.43;2.70;;;;;;;18.07;79.28;101909.44;5034907;28;20025;-61
2023/08/23 01:12:37;;;;;;;5.13;2.45;;;;;;;17.80;80.72;101907.75;5034640;28;20080;-60
2023/08/23 01:15:07;;;;;;;4.00;2.40;;;;;;;17.57;81.78;101899.75;5034945;28;20079;-59
2023/08/23 01:17:36;;;;;;;4.10;2.60;;;;;;;17.39;82.73;101906.00;5034428;28;20155;-59
2023/08/23 01:20:02;;;;;;;6.10;2.70;;;;;;;17.26;83.10;101915.81;5034616;28;20025;-60
2023/08/23 01:22:30;;;;;;;6.28;2.50;;;;;;;17.24;83.26;101916.69;5034465;28;20364;-60
2023/08/23 01:24:56;;;;;;;4.10;2.50;;;;;;;17.31;82.74;101914.91;5034476;28;20115;-60
2023/08/23 01:27:21;;;;;;;5.00;2.50;;;;;;;17.41;82.11;101922.03;5034424;28;20052;-61
2023/08/23 01:29:48;;;;;;;4.88;2.60;;;;;;;17.48;82.05;101914.00;5034269;28;20045;-59
2023/08/23 01:32:19;;;;;;;4.40;2.60;;;;;;;17.66;81.53;101915.75;5034490;28;20033;-60
2023/08/23 01:34:51;;;;;;;5.10;2.47;;;;;;;17.61;81.64;101922.91;5034289;28;20017;-60
2023/08/23 01:37:20;;;;;;;7.97;2.72;;;;;;;17.69;81.16;101913.09;5016516;28;20022;-60
2023/08/23 01:39:46;;;;;;;5.07;3.00;;;;;;;17.76;80.65;101916.66;5034006;28;20029;-61
2023/08/23 01:42:11;;;;;;;9.05;2.80;;;;;;;17.82;79.67;101915.78;5034290;28;20091;-60
2023/08/23 01:44:40;;;;;;;5.32;2.92;;;;;;;17.86;79.66;101912.19;5016367;28;20479;-61
2023/08/23 01:47:06;;;;;;;6.82;2.85;;;;;;;17.86;79.01;101912.19;5033959;28;20557;-60
2023/08/23 01:49:31;;;;;;;3.97;2.90;;;;;;;17.80;78.41;101907.75;5034177;28;20053;-60
2023/08/23 01:51:57;;;;;;;7.13;2.88;;;;;;;17.75;78.45;101897.06;5033902;28;20099;-60
2023/08/23 01:54:22;;;;;;;7.85;3.30;;;;;;;17.65;78.87;101903.31;5033950;28;20052;-60
2023/08/23 01:56:47;;;;;;;5.60;2.80;;;;;;;17.55;79.35;101911.31;5033802;28;20044;-59
2023/08/23 01:59:13;;;;;;;4.40;2.90;;;;;;;17.45;80.01;101906.00;5016113;28;20112;-60
2023/08/23 02:01:38;;;;;;;8.32;3.30;;;;;;;17.41;80.34;101909.56;5034015;28;20049;-60
2023/08/23 02:04:04;;;;;;;6.25;3.08;;;;;;;17.32;81.16;101911.34;5033737;28;20026;-60
2023/08/23 02:06:29;;;;;;;6.47;3.15;;;;;;;17.35;81.36;101895.31;5033560;28;20029;-60
2023/08/23 02:08:54;;;;;;;6.50;3.30;;;;;;;17.29;81.66;101901.53;5015821;28;20514;-60
2023/08/23 02:11:20;;;;;;;6.82;3.22;;;;;;;17.28;81.95;101897.97;5033727;28;20041;-59
2023/08/23 02:13:45;;;;;;;6.15;3.00;;;;;;;17.34;81.33;101901.53;5033804;28;20030;-59
2023/08/23 02:16:11;;;;;;;4.57;2.70;;;;;;;17.39;80.70;101905.13;5033787;28;20541;-60
2023/08/23 02:18:36;;;;;;;6.57;3.33;;;;;;;17.45;80.33;101897.97;5033260;28;20030;-60
2023/08/23 02:21:01;;;;;;;4.82;3.08;;;;;;;17.36;80.37;101891.75;5033455;28;20568;-60
2023/08/23 02:23:27;;;;;;;5.47;3.20;;;;;;;17.39;80.49;101900.66;5033412;28;20034;-60
2023/08/23 02:25:52;;;;;;;5.70;3.40;;;;;;;17.31;80.66;101905.13;5033432;28;20034;-60
2023/08/23 02:28:18;;;;;;;6.22;3.10;;;;;;;17.36;79.66;101905.09;5015558;28;20418;-61
2023/08/23 02:30:44;;;;;;;7.05;3.20;;;;;;;17.28;79.38;101902.44;5033706;28;20035;-60
2023/08/23 02:33:09;;;;;;;8.07;3.38;;;;;;;17.09;80.67;101896.22;5033148;28;20025;-60
2023/08/23 02:35:44;;;;;;;7.30;2.85;;;;;;;17.09;80.65;101895.31;5033250;28;20497;-59
2023/08/23 02:38:10;;;;;;;5.28;3.10;;;;;;;17.06;80.36;101900.66;5033220;28;20383;-60
2023/08/23 02:40:40;;;;;;;6.43;3.20;;;;;;;17.01;80.44;101901.53;5033385;28;20072;-60
2023/08/23 02:43:05;;;;;;;5.75;2.80;;;;;;;16.91;81.21;101897.03;5033154;28;20134;-60
2023/08/23 02:45:30;;;;;;;7.00;2.90;;;;;;;16.77;81.74;101904.16;5033193;28;20491;-61
2023/08/23 02:47:56;;;;;;;5.25;2.90;;;;;;;16.76;81.93;101897.94;5032917;28;20029;-60
2023/08/23 02:50:21;;;;;;;5.70;2.97;;;;;;;16.79;82.27;101891.72;5033265;28;20025;-59
2023/08/23 02:52:46;;;;;;;4.68;2.70;;;;;;;16.70;82.54;101904.97;5033048;28;20049;-60
2023/08/23 02:55:12;;;;;;;5.88;2.83;;;;;;;16.68;82.41;101904.09;5032965;28;20118;-60
2023/08/23 02:57:37;;;;;;;4.53;2.70;;;;;;;16.60;82.58;101896.06;5032885;28;20021;-60
2023/08/23 03:00:03;;;;;;;5.97;3.10;;;;;;;16.68;82.41;101890.75;5033048;28;20113;-60
2023/08/23 03:02:28;;;;;;;7.60;2.80;;;;;;;16.71;82.11;101877.44;5032764;28;20025;-60
2023/08/23 03:04:53;;;;;;;4.75;2.17;;;;;;;16.78;81.64;101884.56;5033137;28;20037;-59
2023/08/23 03:07:19;;;;;;;2.60;2.20;;;;;;;16.72;81.24;101874.78;5015200;28;20061;-59
2023/08/23 03:09:44;;;;;;;6.25;2.80;;;;;;;16.76;81.66;101886.38;5032594;28;20087;-60
2023/08/23 03:12:09;;;;;;;3.47;2.80;;;;;;;16.75;81.76;101880.13;5032835;28;20026;-59
2023/08/23 03:14:35;;;;;;;4.93;2.53;;;;;;;16.74;81.69;101886.38;5033064;28;20037;-60
2023/08/23 03:17:00;;;;;;;6.95;2.85;;;;;;;16.68;81.36;101880.09;5033000;28;20531;-60
2023/08/23 03:19:26;;;;;;;6.65;2.60;;;;;;;16.71;81.70;101878.31;5036870;28;20121;-59
2023/08/23 03:21:51;;;;;;;4.90;2.42;;;;;;;16.64;81.50;101862.28;5036750;28;20095;-60
2023/08/23 03:24:16;;;;;;;8.52;2.70;;;;;;;16.57;81.71;101882.72;5019005;28;20026;-60
2023/08/23 03:26:42;;;;;;;5.47;2.60;;;;;;;16.55;81.69;101881.81;5036755;28;20101;-59
2023/08/23 03:29:07;;;;;;;3.60;2.45;;;;;;;16.55;81.63;101875.59;5040635;28;20073;-60
2023/08/23 03:31:33;;;;;;;3.08;2.40;;;;;;;16.62;81.51;101872.97;5036774;28;20040;-59
2023/08/23 03:33:58;;;;;;;3.10;2.45;;;;;;;16.64;80.82;101876.50;5036774;28;20029;-60
2023/08/23 03:36:24;;;;;;;4.30;2.70;;;;;;;16.63;80.71;101876.53;5036771;28;20036;-61
2023/08/23 03:38:49;;;;;;;4.75;2.70;;;;;;;16.55;80.62;101875.59;5036192;28;20559;-60
2023/08/23 03:41:15;;;;;;;4.95;2.72;;;;;;;16.46;81.02;101877.34;5036485;28;20558;-59
2023/08/23 03:43:40;;;;;;;4.07;2.80;;;;;;;16.38;81.58;101881.78;5036352;28;20030;-59
2023/08/23 03:46:05;;;;;;;5.35;2.70;;;;;;;16.24;82.31;101884.41;5035163;28;20106;-59
2023/08/23 03:48:31;;;;;;;4.40;2.80;;;;;;;16.17;83.27;101881.69;5036233;28;20030;-60
2023/08/23 03:51:00;;;;;;;5.13;2.92;;;;;;;16.10;83.67;101878.13;5036248;28;20091;-60
2023/08/23 03:53:26;;;;;;;4.75;3.00;;;;;;;16.16;83.58;101885.25;5036346;28;20105;-59
2023/08/23 03:55:54;;;;;;;6.03;2.90;;;;;;;16.28;82.86;101882.63;5036419;28;20025;-59
2023/08/23 03:58:21;;;;;;;5.43;3.30;;;;;;;16.40;83.51;101881.78;5036292;28;20029;-60
2023/08/23 04:00:53;;;;;;;3.70;2.70;;;;;;;16.46;81.42;101888.03;5036270;28;20022;-60
2023/08/23 04:03:18;;;;;;;3.72;2.80;;;;;;;16.50;81.00;101883.59;5036063;28;20057;-60
2023/08/23 04:05:44;;;;;;;7.72;2.92;;;;;;;16.47;80.67;101887.13;5018225;28;20124;-60
2023/08/23 04:08:10;;;;;;;5.35;2.90;;;;;;;16.56;80.52;101891.59;5036270;28;20044;-60
2023/08/23 04:10:36;;;;;;;6.78;2.80;;;;;;;16.58;80.36;101883.63;5035648;28;20479;-60
2023/08/23 04:13:01;;;;;;;5.45;3.10;;;;;;;16.47;80.91;101883.59;5035761;28;20037;-59
2023/08/23 04:15:27;;;;;;;3.53;2.45;;;;;;;16.49;81.30;101885.38;5035793;28;20068;-60
2023/08/23 04:17:52;;;;;;;4.50;3.13;;;;;;;16.51;82.57;101888.03;5035601;28;20029;-60
2023/08/23 04:20:18;;;;;;;4.22;2.75;;;;;;;16.53;81.79;101889.84;5036021;28;20063;-59
2023/08/23 04:22:43;;;;;;;3.72;2.53;;;;;;;16.57;81.44;101890.72;5035693;28;20033;-59
2023/08/23 04:25:10;;;;;;;4.55;2.55;;;;;;;16.62;81.51;101894.31;5035588;28;20050;-59
2023/08/23 04:27:35;;;;;;;4.45;2.88;;;;;;;16.61;81.49;101894.28;5035535;28;20048;-60
2023/08/23 04:30:01;;;;;;;5.20;2.70;;;;;;;16.62;81.26;101891.66;5035013;28;20046;-60
2023/08/23 04:32:26;;;;;;;5.15;2.70;;;;;;;16.56;81.12;101896.94;5035342;28;20483;-60
2023/08/23 04:34:52;;;;;;;6.43;2.85;;;;;;;16.56;80.74;101886.28;5034646;28;20037;-59
2023/08/23 04:37:17;;;;;;;5.78;3.10;;;;;;;16.56;80.65;101898.72;5034783;28;20051;-59
2023/08/23 04:39:43;;;;;;;6.50;3.20;;;;;;;16.45;80.88;101896.03;5034707;28;20053;-60
2023/08/23 04:42:08;;;;;;;5.70;3.15;;;;;;;16.43;81.34;101892.47;5034470;28;20124;-59
2023/08/23 04:44:33;;;;;;;9.80;3.20;;;;;;;16.32;81.91;101891.56;5034690;28;20450;-60
2023/08/23 04:46:59;;;;;;;4.47;3.03;;;;;;;16.19;82.53;101896.84;5034354;28;20021;-60
2023/08/23 04:49:24;;;;;;;7.63;3.10;;;;;;;16.07;83.13;101898.53;5034960;28;20064;-61
2023/08/23 04:51:50;;;;;;;4.65;2.90;;;;;;;15.95;83.81;101894.91;5034482;28;20033;-60
2023/08/23 04:54:15;;;;;;;3.90;2.90;;;;;;;15.87;84.39;101890.44;5034694;28;20033;-60
2023/08/23 04:56:40;;;;;;;5.90;3.05;;;;;;;15.70;85.32;101888.56;5034345;28;20036;-61
2023/08/23 04:59:06;;;;;;;5.53;3.10;;;;;;;15.63;85.92;101881.38;5034662;28;20080;-60
2023/08/23 05:01:31;;;;;;;7.72;3.08;;;;;;;15.65;86.54;101894.75;5034361;28;20037;-61
2023/08/23 05:03:56;;;;;;;4.72;3.08;;;;;;;15.65;86.71;101882.31;5034384;28;20460;-61
2023/08/23 05:06:22;;;;;;;5.22;3.10;;;;;;;15.65;86.70;101887.63;5034466;28;20025;-61
2023/08/23 05:08:47;;;;;;;5.00;3.00;;;;;;;15.71;86.98;101886.78;5034265;28;20025;-60
2023/08/23 05:11:13;;;;;;;5.32;3.17;;;;;;;15.84;86.36;101885.06;5034702;28;20036;-61
2023/08/23 05:13:38;;;;;;;9.55;3.60;;;;;;;15.95;86.69;101881.59;5034149;28;20120;-61
2023/08/23 05:16:04;;;;;;;5.45;3.40;;;;;;;16.15;86.22;101880.81;5034351;28;20040;-59
2023/08/23 05:18:29;;;;;;;6.25;3.30;;;;;;;16.35;85.80;101881.75;5033873;28;20050;-60
2023/08/23 05:21:00;;;;;;;6.65;3.38;;;;;;;16.62;84.97;101872.06;5034505;28;20057;-61
2023/08/23 05:23:25;;;;;;;5.80;3.10;;;;;;;16.79;84.97;101883.72;5016261;28;20040;-60
2023/08/23 05:25:52;;;;;;;7.63;3.78;;;;;;;16.80;85.37;101880.16;5033312;28;20037;-60
2023/08/23 05:28:22;;;;;;;6.60;3.72;;;;;;;16.87;85.16;101870.34;5034201;28;20025;-61
2023/08/23 05:30:47;;;;;;;5.50;4.00;;;;;;;16.91;85.28;101875.69;5033622;28;20038;-60
2023/08/23 05:33:13;;;;;;;7.38;3.88;;;;;;;16.88;85.93;101878.38;5033814;28;20037;-61
2023/08/23 05:35:43;;;;;;;7.93;3.90;;;;;;;16.98;85.44;101893.50;5034075;28;20451;-61
2023/08/23 05:38:11;;;;;;;6.95;3.83;;;;;;;17.02;85.04;101894.41;5034123;28;20056;-61
2023/08/23 05:40:37;;;;;;;5.35;4.03;;;;;;;17.07;85.16;101892.63;5032798;28;20471;-60
2023/08/23 05:43:03;;;;;;;7.45;4.40;;;;;;;17.09;85.47;101884.63;5033717;28;20033;-60
2023/08/23 05:45:29;;;;;;;7.25;4.03;;;;;;;17.12;85.89;101887.28;5033539;28;20132;-61
2023/08/23 05:47:55;;;;;;;6.35;3.75;;;;;;;17.14;85.51;101886.41;5033606;28;20038;-60
2023/08/23 05:50:21;;;;;;;8.73;4.40;;;;;;;17.14;85.97;101890.88;5033727;28;20041;-61
2023/08/23 05:52:46;;;;;;;7.22;4.10;;;;;;;17.18;85.75;101884.63;5033822;28;20021;-60
2023/08/23 05:55:12;;;;;;;7.10;4.03;;;;;;;17.24;85.71;101898.88;5033599;28;20533;-61
2023/08/23 05:57:37;;;;;;;6.35;4.38;;;;;;;17.38;86.00;101896.19;5033312;28;20036;-61
2023/08/23 06:00:05;;;;;;;5.90;4.32;;;;;;;17.60;85.52;101899.75;5033686;28;20028;-61
2023/08/23 06:02:30;;;;;;;9.20;4.85;;;;;;;17.78;85.14;101898.84;5033069;28;20480;-60
2023/08/23 06:04:55;;;;;;;10.48;5.50;;;;;;;18.04;84.75;101900.56;5033338;28;20037;-61
2023/08/23 06:07:21;;;;;;;10.57;6.10;;;;;;;18.22;84.37;101896.03;5033415;28;20137;-60
2023/08/23 06:09:46;;;;;;;16.40;6.63;;;;;;;18.39;84.31;101909.34;5033245;28;20026;-61
2023/08/23 06:12:11;;;;;;;15.32;6.35;;;;;;;18.61;84.02;101911.91;5033293;28;20030;-61
2023/08/23 06:14:37;;;;;;;12.90;6.85;;;;;;;18.81;83.54;101907.38;5033139;28;20026;-60
2023/08/23 06:17:02;;;;;;;14.65;7.38;;;;;;;19.01;83.18;101902.78;5032960;28;20163;-60
2023/08/23 06:19:28;;;;;;;14.65;7.90;;;;;;;19.26;82.26;101908.81;5033023;28;20072;-60
2023/08/23 06:21:53;;;;;;;16.58;8.20;;;;;;;19.39;82.07;101901.56;5033140;28;20022;-60
2023/08/23 06:24:19;;;;;;;16.13;8.90;;;;;;;19.58;81.01;101904.09;5033039;28;20036;-60
2023/08/23 06:26:45;;;;;;;17.40;9.32;;;;;;;19.76;81.91;101907.50;5032939;28;20387;-60
2023/08/23 06:29:10;;;;;;;20.48;8.80;;;;;;;19.94;80.75;101902.84;5032720;28;20073;-60
2023/08/23 06:31:36;;;;;;;12.90;7.93;;;;;;;20.14;79.84;101905.31;5032994;28;20146;-60
2023/08/23 06:34:01;;;;;;;11.35;7.03;;;;;;;20.31;79.00;101913.16;5032769;28;20029;-60
2023/08/23 06:36:27;;;;;;;13.98;6.97;;;;;;;20.52;77.94;101918.28;5032898;28;20504;-61
2023/08/23 06:38:53;;;;;;;15.23;8.13;;;;;;;20.66;78.01;101920.75;5031654;28;20029;-60
2023/08/23 06:41:18;;;;;;;12.60;7.57;;;;;;;20.76;78.00;101903.59;5032840;28;20034;-61
2023/08/23 06:43:46;;;;;;;12.38;7.32;;;;;;;20.82;77.47;101908.91;5032978;28;20033;-60
2023/08/23 06:46:12;;;;;;;11.88;6.93;;;;;;;20.82;78.65;101905.31;5032706;28;20032;-61
2023/08/23 06:48:37;;;;;;;14.38;7.15;;;;;;;20.83;78.08;101907.09;5032479;28;20120;-60
2023/08/23 06:51:03;;;;;;;16.35;7.13;;;;;;;20.94;78.09;101905.13;5032927;28;20056;-61
2023/08/23 06:53:28;;;;;;;12.32;7.30;;;;;;;20.90;77.61;101904.31;5032948;28;20022;-60
2023/08/23 06:55:54;;;;;;;11.80;7.28;;;;;;;21.03;78.44;101913.06;5032528;28;20498;-59
2023/08/23 06:58:20;;;;;;;10.77;7.38;;;;;;;21.23;77.08;101913.59;5032875;28;20032;-61
2023/08/23 07:00:46;;;;;;;11.10;6.95;;;;;;;21.48;74.87;101919.50;5032500;28;20039;-61
2023/08/23 07:03:11;;;;;;;10.65;6.63;;;;;;;21.61;73.70;101919.28;5032670;28;20040;-60
2023/08/23 07:05:37;;;;;;;11.75;6.63;;;;;;;21.88;73.65;101928.63;5032546;28;20041;-61
2023/08/23 07:08:03;;;;;;;12.75;6.90;;;;;;;22.12;72.59;101930.91;5014874;28;20049;-61
2023/08/23 07:10:29;;;;;;;8.88;6.45;;;;;;;22.34;71.58;101925.06;5032573;28;20025;-60
2023/08/23 07:12:55;;;;;;;11.27;6.90;;;;;;;22.43;69.73;101930.25;5032565;28;20461;-60
2023/08/23 07:15:21;;;;;;;11.02;6.70;;;;;;;22.57;69.50;101930.88;5032836;28;20034;-60
2023/08/23 07:17:48;;;;;;;13.52;6.82;;;;;;;22.42;69.68;101932.06;5032580;28;20099;-61
2023/08/23 07:20:15;;;;;;;10.40;6.63;;;;;;;22.43;69.79;101932.97;5032470;28;20469;-60
2023/08/23 07:22:41;;;;;;;11.93;6.60;;;;;;;22.56;70.10;101930.88;5032469;28;20029;-60
2023/08/23 07:25:07;;;;;;;12.48;6.88;;;;;;;22.93;69.26;101939.06;5031137;28;20442;-61
2023/08/23 07:27:33;;;;;;;9.52;6.47;;;;;;;23.21;68.49;101933.91;5032253;28;20034;-60
2023/08/23 07:29:59;;;;;;;10.65;6.55;;;;;;;23.29;67.51;101937.28;5032432;28;20050;-60
2023/08/23 07:32:25;;;;;;;11.35;6.65;;;;;;;23.62;67.46;101945.47;5032398;28;20395;-60
2023/08/23 07:34:50;;;;;;;11.68;6.63;;;;;;;23.63;67.51;101941.84;5031157;28;20032;-60
2023/08/23 07:37:17;;;;;;;9.88;6.43;;;;;;;23.86;66.62;101947.56;5032247;28;20472;-59
2023/08/23 07:39:43;;;;;;;9.55;6.05;;;;;;;24.06;62.59;101946.13;5032419;28;20034;-59
2023/08/23 07:42:09;;;;;;;8.23;6.10;;;;;;;24.21;62.62;101945.69;5032596;28;20026;-61
2023/08/23 07:44:34;;;;;;;9.80;6.22;;;;;;;24.43;61.38;101943.28;5032446;28;20026;-60
2023/08/23 07:47:00;;;;;;;9.18;6.72;;;;;;;24.60;61.81;101953.59;5032170;28;20026;-60
2023/08/23 07:49:26;;;;;;;11.57;7.10;;;;;;;24.82;60.53;101951.13;5032364;28;20083;-61
2023/08/23 07:51:52;;;;;;;9.05;5.72;;;;;;;24.91;57.55;101951.72;5032404;28;20055;-60
2023/08/23 07:54:18;;;;;;;11.38;6.03;;;;;;;25.08;58.32;101950.28;5032355;28;20026;-61
2023/08/23 07:56:43;;;;;;;9.75;5.72;;;;;;;25.02;58.10;101951.38;5032182;28;20390;-60
2023/08/23 07:59:08;;;;;;;14.27;5.95;;;;;;;24.97;58.17;101939.84;5030892;28;20060;-61
2023/08/23 08:01:34;;;;;;;14.98;6.32;;;;;;;25.19;57.18;101950.88;5032398;28;20052;-61
2023/08/23 08:03:59;;;;;;;9.90;6.28;;;;;;;24.95;57.71;101950.69;5033558;28;20463;-61
2023/08/23 08:06:25;;;;;;;12.75;5.72;;;;;;;25.16;57.17;101951.84;5035954;28;20029;-61
2023/08/23 08:08:50;;;;;;;12.00;6.28;;;;;;;25.32;58.14;101951.34;5035735;28;20394;-61
2023/08/23 08:11:16;;;;;;;12.82;6.13;;;;;;;25.30;57.33;101942.38;5034759;28;20461;-61
2023/08/23 08:13:41;;;;;;;11.23;5.70;;;;;;;25.62;56.56;101944.91;5035338;28;20030;-61
2023/08/23 08:16:12;;;;;;;10.65;5.82;;;;;;;25.46;56.77;101946.34;5035385;28;20037;-60
2023/08/23 08:18:38;;;;;;;12.43;5.82;;;;;;;25.78;55.36;101937.19;5035243;28;20022;-60
2023/08/23 08:21:04;;;;;;;8.27;4.80;;;;;;;26.02;53.10;101940.81;5035061;28;20022;-58
2023/08/23 08:23:30;;;;;;;9.05;4.70;;;;;;;26.18;53.61;101947.44;5017302;28;20060;-59
2023/08/23 08:25:55;;;;;;;9.57;5.03;;;;;;;26.27;52.48;101943.50;5034904;28;20036;-59
2023/08/23 08:28:21;;;;;;;13.25;4.90;;;;;;;26.49;53.83;101949.03;5035138;28;20033;-59
2023/08/23 08:30:47;;;;;;;9.10;5.30;;;;;;;26.60;51.86;101954.94;5034907;28;20056;-60
2023/08/23 08:33:12;;;;;;;7.75;4.75;;;;;;;26.48;52.14;101955.41;5017379;28;20029;-60
2023/08/23 08:35:38;;;;;;;9.32;5.10;;;;;;;26.67;52.34;101955.56;5035118;28;20029;-59
2023/08/23 08:38:03;;;;;;;11.80;5.60;;;;;;;26.87;51.49;101957.50;5032118;28;20049;-59
2023/08/23 08:40:29;;;;;;;12.43;5.25;;;;;;;27.20;50.69;101942.59;5015104;28;20028;-59
2023/08/23 08:42:55;;;;;;;9.18;4.88;;;;;;;27.35;49.30;101934.75;5014983;28;20017;-60
2023/08/23 08:45:21;;;;;;;7.43;4.22;;;;;;;27.81;47.55;101936.41;5014124;28;20029;-59
2023/08/23 08:47:47;;;;;;;9.90;4.80;;;;;;;27.64;48.18;101928.09;5013681;28;20034;-60
2023/08/23 08:50:13;;;;;;;8.55;3.80;;;;;;;27.78;46.87;101927.50;5014044;28;20427;-59
2023/08/23 08:52:49;;;;;;;6.63;4.07;;;;;;;27.86;46.77;101937.09;5013862;28;20040;-60
2023/08/23 08:55:15;;;;;;;5.60;3.47;;;;;;;27.96;45.37;101926.69;5013933;28;20080;-58
2023/08/23 08:57:43;;;;;;;8.65;3.90;;;;;;;27.81;45.54;101932.81;5013906;28;20026;-60
2023/08/23 09:00:09;;;;;;;6.40;3.40;;;;;;;28.10;45.29;101928.81;5014361;28;20033;-60
2023/08/23 09:02:37;;;;;;;9.18;3.40;;;;;;;28.21;44.33;101943.66;5014433;28;20037;-59
2023/08/23 09:05:05;;;;;;;5.47;3.55;;;;;;;28.18;44.64;101943.81;5014681;28;20448;-61
2023/08/23 09:07:31;;;;;;;5.47;3.83;;;;;;;28.27;44.36;101928.03;4996926;28;20036;-60
2023/08/23 09:09:57;;;;;;;8.52;4.07;;;;;;;28.35;44.12;101932.19;5014485;28;20480;-60
2023/08/23 09:12:23;;;;;;;8.60;3.85;;;;;;;28.61;43.89;101938.25;5014261;28;20022;-63
2023/08/23 09:14:49;;;;;;;7.90;3.80;;;;;;;29.01;43.55;101934.50;5013670;28;20084;-60
2023/08/23 09:17:15;;;;;;;6.93;3.85;;;;;;;29.31;43.11;101932.09;5014027;28;20030;-61
2023/08/23 09:19:41;;;;;;;8.43;4.10;;;;;;;29.41;42.54;101943.38;5014108;28;20033;-59
2023/08/23 09:22:06;;;;;;;8.40;3.95;;;;;;;29.45;42.18;101932.25;5014191;28;20030;-60
2023/08/23 09:24:33;;;;;;;7.68;3.60;;;;;;;29.14;42.70;101934.78;5014175;28;20518;-60
2023/08/23 09:26:59;;;;;;;6.88;3.80;;;;;;;29.45;42.48;101934.09;5014133;28;20476;-61
2023/08/23 09:29:24;;;;;;;7.95;4.30;;;;;;;29.74;41.09;101926.31;5020788;28;20060;-60
2023/08/23 09:31:50;;;;;;;10.27;4.28;;;;;;;29.74;41.80;101929.03;5033853;28;20026;-60
2023/08/23 09:34:16;;;;;;;9.57;4.20;;;;;;;29.93;42.21;101932.53;5033688;28;20033;-61
2023/08/23 09:36:42;;;;;;;7.13;4.38;;;;;;;30.28;40.04;101943.41;4999786;28;20129;-60
2023/08/23 09:39:11;;;;;;;6.80;4.05;;;;;;;30.60;40.75;101939.78;5033963;28;20017;-60
2023/08/23 09:41:38;;;;;;;8.18;4.47;;;;;;;30.67;39.84;101943.94;5033625;28;20037;-60
2023/08/23 09:44:04;;;;;;;11.65;4.93;;;;;;;30.76;39.09;101945.31;5033497;28;20105;-61
2023/08/23 09:46:34;;;;;;;7.55;4.38;;;;;;;30.86;39.88;101930.16;5033863;28;20108;-60
2023/08/23 09:49:05;;;;;;;8.30;4.50;;;;;;;31.01;39.87;101927.53;5033605;28;20035;-60
2023/08/23 09:51:35;;;;;;;9.82;4.07;;;;;;;30.90;40.41;101931.72;5033509;28;20084;-61
2023/08/23 09:54:10;;;;;;;8.45;4.53;;;;;;;30.66;39.75;101931.28;5015692;28;20036;-60
2023/08/23 09:56:36;;;;;;;8.55;4.80;;;;;;;30.87;40.50;101931.03;5033473;28;20033;-60
2023/08/23 09:59:02;;;;;;;8.18;4.53;;;;;;;30.90;39.40;101930.84;5033374;28;20014;-59
2023/08/23 10:01:28;;;;;;;10.50;4.47;;;;;;;30.90;40.27;101931.72;5033201;28;20049;-61
2023/08/23 10:03:53;;;;;;;8.73;4.70;;;;;;;31.05;39.27;101929.06;5033369;28;20108;-60
2023/08/23 10:06:21;;;;;;;8.88;4.80;;;;;;;31.05;40.27;101940.91;5033337;28;20121;-61
2023/08/23 10:08:47;;;;;;;7.93;4.00;;;;;;;31.24;40.18;101935.22;5032981;28;20095;-60
2023/08/23 10:11:13;;;;;;;9.73;4.30;;;;;;;31.45;38.68;101933.13;5032958;28;20030;-60
2023/08/23 10:13:40;;;;;;;13.30;4.00;;;;;;;31.68;37.85;101937.19;5015418;28;20025;-59
2023/08/23 10:16:07;;;;;;;11.98;4.70;;;;;;;31.50;38.37;101933.72;5033130;28;20064;-61
2023/08/23 10:18:34;;;;;;;10.57;4.32;;;;;;;31.86;37.30;101927.91;5032795;28;20044;-62
2023/08/23 10:21:01;;;;;;;13.75;4.10;;;;;;;31.79;38.97;101926.47;5032742;28;20025;-60
2023/08/23 10:23:29;;;;;;;10.43;4.20;;;;;;;31.75;37.52;101929.50;5033130;28;20063;-61
2023/08/23 10:25:54;;;;;;;10.93;3.70;;;;;;;31.91;36.10;101927.63;5015169;28;20030;-61
2023/08/23 10:28:20;;;;;;;8.90;4.05;;;;;;;31.71;36.23;101926.06;5032879;28;20026;-61
2023/08/23 10:30:48;;;;;;;7.43;4.03;;;;;;;31.90;36.36;101923.09;5032690;28;20546;-60
2023/08/23 10:33:15;;;;;;;12.00;4.80;;;;;;;32.11;36.11;101923.63;5032995;28;20038;-61
2023/08/23 10:35:45;;;;;;;6.47;4.05;;;;;;;32.35;36.46;101921.19;5032663;28;20076;-61
2023/08/23 10:38:11;;;;;;;8.00;4.70;;;;;;;32.48;35.98;101922.19;5015108;28;20025;-59
2023/08/23 10:40:42;;;;;;;9.32;4.43;;;;;;;32.21;35.93;101921.22;5032630;28;20029;-58
2023/08/23 10:43:16;;;;;;;6.82;3.90;;;;;;;32.25;34.77;101920.91;5032747;28;20022;-62
2023/08/23 10:46:08;;;;;;;6.57;3.97;;;;;;;32.51;35.45;101923.88;5032938;28;20055;-60
2023/08/23 10:48:34;;;;;;;8.98;3.97;;;;;;;32.53;34.11;101908.22;5032594;28;20033;-61
2023/08/23 10:51:01;;;;;;;6.90;3.42;;;;;;;32.35;33.67;101911.13;5033089;28;20024;-60
2023/08/23 10:53:26;;;;;;;6.90;3.75;;;;;;;32.11;34.20;101902.63;5032709;28;20483;-59
2023/08/23 10:55:52;;;;;;;10.50;4.20;;;;;;;32.62;34.56;101913.09;5032618;28;20030;-60
2023/08/23 10:58:17;;;;;;;7.93;3.90;;;;;;;32.85;32.60;101909.72;5032953;28;20064;-60
2023/08/23 11:00:45;;;;;;;5.80;3.28;;;;;;;33.16;33.09;101904.97;5032632;28;20025;-61
2023/08/23 11:03:11;;;;;;;8.50;3.40;;;;;;;33.40;32.81;101897.81;5032543;28;20022;-60
2023/08/23 11:05:37;;;;;;;5.55;3.40;;;;;;;33.55;33.25;101886.78;5032237;28;20032;-60
2023/08/23 11:08:02;;;;;;;8.80;3.30;;;;;;;33.54;32.03;101885.03;5032548;28;20025;-60
2023/08/23 11:10:29;;;;;;;5.68;3.15;;;;;;;33.75;31.35;101886.28;5032359;28;20403;-60
2023/08/23 11:12:55;;;;;;;10.25;3.70;;;;;;;33.78;31.20;101880.56;5032453;28;20025;-59
2023/08/23 11:15:21;;;;;;;7.95;3.53;;;;;;;33.99;31.34;101875.44;5032323;28;20034;-60
2023/08/23 11:17:47;;;;;;;7.07;3.83;;;;;;;33.82;31.58;101879.34;5032399;28;20180;-59
2023/08/23 11:20:13;;;;;;;8.95;4.38;;;;;;;33.60;32.09;101868.16;5032013;28;20049;-60